sensor_id;sensor_type;location;lat;lon;timestamp;temperature;humidity
1524;DHT22;755;53.658;10.118;2022-11-30T00:05:06;4.30;99.90
1524;DHT22;755;53.658;10.118;2022-11-30T00:15:10;4.30;99.90
1524;DHT22;755;53.658;10.118;2022-11-30T00:25:14;4.30;99.90
1524;DHT22;755;53.658;10.118;2022-11-30T00:35:17;4.30;99.90
1524;DHT22;755;53.658;10.118;2022-11-30T00:45:19;4.30;99.90
1524;DHT22;755;53.658;10.118;2022-11-30T00:55:23;4.30;99.90
1524;DHT22;755;53.658;10.118;2022-11-30T01:05:25;4.30;99.90
1524;DHT22;755;53.658;10.118;2022-11-30T01:15:30;4.40;99.90
1524;DHT22;755;53.658;10.118;2022-11-30T01:25:32;4.40;99.90
1524;DHT22;755;53.658;10.118;2022-11-30T01:35:35;4.20;99.90
1524;DHT22;755;53.658;10.118;2022-11-30T01:45:37;4.30;99.90
1524;DHT22;755;53.658;10.118;2022-11-30T01:55:42;4.30;99.90
1524;DHT22;755;53.658;10.118;2022-11-30T02:05:48;4.20;99.90
1524;DHT22;755;53.658;10.118;2022-11-30T02:15:58;4.20;99.90
1524;DHT22;755;53.658;10.118;2022-11-30T02:26:15;4.30;99.90
1524;DHT22;755;53.658;10.118;2022-11-30T02:36:25;4.30;99.90
1524;DHT22;755;53.658;10.118;2022-11-30T02:46:34;4.30;99.90
1524;DHT22;755;53.658;10.118;2022-11-30T02:56:43;4.30;99.90
1524;DHT22;755;53.658;10.118;2022-11-30T03:06:45;4.30;99.90
1524;DHT22;755;53.658;10.118;2022-11-30T03:16:48;4.20;99.90
1524;DHT22;755;53.658;10.118;2022-11-30T03:26:53;4.20;99.90
1524;DHT22;755;53.658;10.118;2022-11-30T03:36:57;4.20;99.90
1524;DHT22;755;53.658;10.118;2022-11-30T03:46:59;4.10;99.90
1524;DHT22;755;53.658;10.118;2022-11-30T03:57:02;4.20;99.90
1524;DHT22;755;53.658;10.118;2022-11-30T04:07:04;4.20;99.90
1524;DHT22;755;53.658;10.118;2022-11-30T04:17:08;4.10;99.90
1524;DHT22;755;53.658;10.118;2022-11-30T04:27:10;4.20;99.90
1524;DHT22;755;53.658;10.118;2022-11-30T04:37:13;4.20;99.90
1524;DHT22;755;53.658;10.118;2022-11-30T04:47:15;4.10;99.90
1524;DHT22;755;53.658;10.118;2022-11-30T04:57:19;4.20;99.90
1524;DHT22;755;53.658;10.118;2022-11-30T05:07:21;4.10;99.90
1524;DHT22;755;53.658;10.118;2022-11-30T05:17:24;4.00;99.90
1524;DHT22;755;53.658;10.118;2022-11-30T05:27:26;4.10;99.90
1524;DHT22;755;53.658;10.118;2022-11-30T05:37:30;4.10;99.90
1524;DHT22;755;53.658;10.118;2022-11-30T05:47:32;4.20;99.90
1524;DHT22;755;53.658;10.118;2022-11-30T05:57:36;4.20;99.90
1524;DHT22;755;53.658;10.118;2022-11-30T06:07:38;4.20;99.90
1524;DHT22;755;53.658;10.118;2022-11-30T06:17:42;4.10;99.90
1524;DHT22;755;53.658;10.118;2022-11-30T06:27:44;4.20;99.90
1524;DHT22;755;53.658;10.118;2022-11-30T06:37:47;4.30;99.90
1524;DHT22;755;53.658;10.118;2022-11-30T06:47:49;4.20;99.90
1524;DHT22;755;53.658;10.118;2022-11-30T06:57:52;4.20;99.90
1524;DHT22;755;53.658;10.118;2022-11-30T07:07:55;4.20;99.90
1524;DHT22;755;53.658;10.118;2022-11-30T07:18:00;4.20;99.90
1524;DHT22;755;53.658;10.118;2022-11-30T07:28:02;4.20;99.90
1524;DHT22;755;53.658;10.118;2022-11-30T07:38:06;4.20;99.90
1524;DHT22;755;53.658;10.118;2022-11-30T07:48:08;4.20;99.90
1524;DHT22;755;53.658;10.118;2022-11-30T07:58:11;4.30;99.90
1524;DHT22;755;53.658;10.118;2022-11-30T08:08:13;4.20;99.90
1524;DHT22;755;53.658;10.118;2022-11-30T08:18:17;4.30;99.90
1524;DHT22;755;53.658;10.118;2022-11-30T08:28:19;4.30;99.90
1524;DHT22;755;53.658;10.118;2022-11-30T08:38:22;4.30;99.90
1524;DHT22;755;53.658;10.118;2022-11-30T08:48:24;4.30;99.90
1524;DHT22;755;53.658;10.118;2022-11-30T08:58:29;4.30;99.90
1524;DHT22;755;53.658;10.118;2022-11-30T09:08:31;4.40;99.90
1524;DHT22;755;53.658;10.118;2022-11-30T09:18:35;4.40;99.90
1524;DHT22;755;53.658;10.118;2022-11-30T09:28:38;4.40;99.90
1524;DHT22;755;53.658;10.118;2022-11-30T09:38:42;4.50;99.90
1524;DHT22;755;53.658;10.118;2022-11-30T09:48:53;4.40;99.90
1524;DHT22;755;53.658;10.118;2022-11-30T09:59:02;4.40;99.90
1524;DHT22;755;53.658;10.118;2022-11-30T10:09:16;4.50;99.90
1524;DHT22;755;53.658;10.118;2022-11-30T10:19:36;4.60;99.90
1524;DHT22;755;53.658;10.118;2022-11-30T10:29:43;4.60;99.90
1524;DHT22;755;53.658;10.118;2022-11-30T10:39:55;4.50;99.90
1524;DHT22;755;53.658;10.118;2022-11-30T10:49:59;4.70;99.90
1524;DHT22;755;53.658;10.118;2022-11-30T11:00:04;4.60;99.90
1524;DHT22;755;53.658;10.118;2022-11-30T11:20:34;4.50;99.90
1524;DHT22;755;53.658;10.118;2022-11-30T11:30:38;4.50;99.90
1524;DHT22;755;53.658;10.118;2022-11-30T11:40:53;4.50;99.90
1524;DHT22;755;53.658;10.118;2022-11-30T11:50:58;4.50;99.90
1524;DHT22;755;53.658;10.118;2022-11-30T12:01:05;4.50;99.90
1524;DHT22;755;53.658;10.118;2022-11-30T12:11:12;4.50;99.90
1524;DHT22;755;53.658;10.118;2022-11-30T12:21:30;4.50;99.90
1524;DHT22;755;53.658;10.118;2022-11-30T12:31:40;4.40;99.90
1524;DHT22;755;53.658;10.118;2022-11-30T12:41:48;4.50;99.90
1524;DHT22;755;53.658;10.118;2022-11-30T12:51:59;4.50;99.90
1524;DHT22;755;53.658;10.118;2022-11-30T13:02:20;4.50;99.90
1524;DHT22;755;53.658;10.118;2022-11-30T13:12:28;4.30;99.90
1524;DHT22;755;53.658;10.118;2022-11-30T13:22:41;4.30;99.90
1524;DHT22;755;53.658;10.118;2022-11-30T13:32:46;4.20;99.90
1524;DHT22;755;53.658;10.118;2022-11-30T13:42:54;4.30;99.90
1524;DHT22;755;53.658;10.118;2022-11-30T13:53:16;4.30;99.90
1524;DHT22;755;53.658;10.118;2022-11-30T14:03:26;4.30;99.90
1524;DHT22;755;53.658;10.118;2022-11-30T14:13:30;4.30;99.90
1524;DHT22;755;53.658;10.118;2022-11-30T14:23:42;4.30;99.90
1524;DHT22;755;53.658;10.118;2022-11-30T14:33:50;4.20;99.90
1524;DHT22;755;53.658;10.118;2022-11-30T14:44:00;4.20;99.90
1524;DHT22;755;53.658;10.118;2022-11-30T14:54:07;4.10;99.90
1524;DHT22;755;53.658;10.118;2022-11-30T15:04:15;4.10;99.90
1524;DHT22;755;53.658;10.118;2022-11-30T15:14:18;4.20;99.90
1524;DHT22;755;53.658;10.118;2022-11-30T15:24:22;4.20;99.90
1524;DHT22;755;53.658;10.118;2022-11-30T15:34:31;4.20;99.90
1524;DHT22;755;53.658;10.118;2022-11-30T15:44:42;4.10;99.90
1524;DHT22;755;53.658;10.118;2022-11-30T15:54:48;4.30;99.90
1524;DHT22;755;53.658;10.118;2022-11-30T16:05:22;4.10;99.90
1524;DHT22;755;53.658;10.118;2022-11-30T16:15:25;4.00;99.90
1524;DHT22;755;53.658;10.118;2022-11-30T16:25:28;4.10;99.90
1524;DHT22;755;53.658;10.118;2022-11-30T16:35:35;4.10;99.90
1524;DHT22;755;53.658;10.118;2022-11-30T16:45:40;4.10;99.90
1524;DHT22;755;53.658;10.118;2022-11-30T16:55:46;4.10;99.90
1524;DHT22;755;53.658;10.118;2022-11-30T17:06:15;4.10;99.90
1524;DHT22;755;53.658;10.118;2022-11-30T17:16:17;4.10;99.90
1524;DHT22;755;53.658;10.118;2022-11-30T17:26:20;4.10;99.90
1524;DHT22;755;53.658;10.118;2022-11-30T17:36:22;4.10;99.90
1524;DHT22;755;53.658;10.118;2022-11-30T17:46:27;4.20;99.90
1524;DHT22;755;53.658;10.118;2022-11-30T17:56:29;4.20;99.90
1524;DHT22;755;53.658;10.118;2022-11-30T18:06:34;4.20;99.90
1524;DHT22;755;53.658;10.118;2022-11-30T18:16:36;4.20;99.90
1524;DHT22;755;53.658;10.118;2022-11-30T18:26:40;4.30;99.90
1524;DHT22;755;53.658;10.118;2022-11-30T18:36:42;4.30;99.90
1524;DHT22;755;53.658;10.118;2022-11-30T18:46:45;4.30;99.90
1524;DHT22;755;53.658;10.118;2022-11-30T18:56:47;4.30;99.90
1524;DHT22;755;53.658;10.118;2022-11-30T19:06:51;4.30;99.90
1524;DHT22;755;53.658;10.118;2022-11-30T19:16:53;4.30;99.90
1524;DHT22;755;53.658;10.118;2022-11-30T19:26:57;4.30;99.90
1524;DHT22;755;53.658;10.118;2022-11-30T19:36:58;4.20;99.90
1524;DHT22;755;53.658;10.118;2022-11-30T19:47:02;4.20;99.90
1524;DHT22;755;53.658;10.118;2022-11-30T19:57:04;4.30;99.90
1524;DHT22;755;53.658;10.118;2022-11-30T20:07:07;4.20;99.90
1524;DHT22;755;53.658;10.118;2022-11-30T20:17:09;4.30;99.90
1524;DHT22;755;53.658;10.118;2022-11-30T20:27:13;4.20;99.90
1524;DHT22;755;53.658;10.118;2022-11-30T20:37:21;4.20;99.90
1524;DHT22;755;53.658;10.118;2022-11-30T20:47:30;4.20;99.90
1524;DHT22;755;53.658;10.118;2022-11-30T20:57:34;4.50;99.90
1524;DHT22;755;53.658;10.118;2022-11-30T21:07:38;4.60;99.90
1524;DHT22;755;53.658;10.118;2022-11-30T21:17:40;4.70;99.90
1524;DHT22;755;53.658;10.118;2022-11-30T21:27:49;4.70;99.90
1524;DHT22;755;53.658;10.118;2022-11-30T21:37:51;4.70;99.90
1524;DHT22;755;53.658;10.118;2022-11-30T21:47:55;4.60;99.90
1524;DHT22;755;53.658;10.118;2022-11-30T21:57:57;4.50;99.90
1524;DHT22;755;53.658;10.118;2022-11-30T22:08:01;4.60;99.90
1524;DHT22;755;53.658;10.118;2022-11-30T22:18:03;4.50;99.90
1524;DHT22;755;53.658;10.118;2022-11-30T22:28:07;4.50;99.90
1524;DHT22;755;53.658;10.118;2022-11-30T22:38:09;4.40;99.90
1524;DHT22;755;53.658;10.118;2022-11-30T22:48:14;4.40;99.90
1524;DHT22;755;53.658;10.118;2022-11-30T22:58:16;4.50;99.90
1524;DHT22;755;53.658;10.118;2022-11-30T23:08:19;4.40;99.90
1524;DHT22;755;53.658;10.118;2022-11-30T23:18:21;4.30;99.90
1524;DHT22;755;53.658;10.118;2022-11-30T23:28:25;4.40;99.90
1524;DHT22;755;53.658;10.118;2022-11-30T23:38:27;4.40;99.90
1524;DHT22;755;53.658;10.118;2022-11-30T23:48:31;4.30;99.90
1524;DHT22;755;53.658;10.118;2022-11-30T23:58:34;4.30;99.90
